FR-0298 weather

Morzine Avoriaz Airport
Avoriaz , Auvergne-Rhône-Alpes, France

Public forecast

Using degrees Celsius for public forecast. Weather courtesy of forecast.io.

Closest aviation weather report (METAR) to Morzine Avoriaz Airport

Closest report is Sion Airport, 23.5 nm (43.5 km) E. Retrieved 2020/01/28 06:20 UTC (21 minutes ago):

LSGS 280620Z VRB01KT 8000 SCT006 BKN050 OVC075 03/03 Q1008

Closest aviation forecast (TAF) to Morzine Avoriaz Airport

Closest forecast is Geneva Cointrin International Airport, 27.3 nm (50.6 km) W. Retrieved 2020/01/28 06:33 UTC (8 minutes ago):

TAF TAF LSGG 280525Z 2806/2912 23015G25KT 9999 -RA FEW015 BKN040 TX09/2806Z TN05/2820Z TN05/2906Z TEMPO 2806/2809 RA PROB40 TEMPO 2807/2818 23025G35KT PROB30 TEMPO 2807/2809 TSRA FEW030CB PROB30 TEMPO 2813/2816 SHRAGS FEW030TCU TEMPO 2819/2912 RA